Time;durP1;ratioP1;P1;durP2;ratioP2;P2;SDS_P1;SDS_P2;PMS_P1;PMS_P2;Temp;Humidity;BMP_temperature;BMP_pressure;BME280_temperature;BME280_humidity;BME280_pressure;Samples;Min_cycle;Max_cycle;Signal;HPM_P1;HPM_P2
2021/07/16 00:01:50;;;;;;;12.63;8.03;;;;;;;25.20;60.40;99203.24;1688829;83;21154;-41
2021/07/16 00:04:17;;;;;;;10.88;7.65;;;;;;;25.20;60.43;99201.86;1686265;85;21052;-41
2021/07/16 00:06:44;;;;;;;9.55;7.95;;;;;;;25.20;60.41;99194.14;1694152;83;21554;-41
2021/07/16 00:09:10;;;;;;;11.65;8.70;;;;;;;24.92;60.29;99159.47;1713049;83;20973;-41
2021/07/16 00:11:39;;;;;;;8.78;7.60;;;;;;;25.14;60.04;99189.83;1706755;83;21024;-41
2021/07/16 00:14:05;;;;;;;9.58;7.97;;;;;;;25.12;59.70;99189.53;1687360;83;21543;-41
2021/07/16 00:16:32;;;;;;;11.73;8.38;;;;;;;25.11;60.01;99186.59;1692236;83;21515;-41
2021/07/16 00:19:00;;;;;;;10.75;8.18;;;;;;;25.09;59.96;99182.89;1706560;83;21044;-41
2021/07/16 00:21:27;;;;;;;12.25;8.45;;;;;;;25.08;60.37;99188.89;1711749;83;21047;-41
2021/07/16 00:23:54;;;;;;;12.18;8.78;;;;;;;25.07;60.37;99194.31;1721502;82;21463;-41
2021/07/16 00:26:20;;;;;;;10.28;8.83;;;;;;;25.05;60.22;99192.59;1749151;80;21137;-41
2021/07/16 00:28:49;;;;;;;12.68;8.30;;;;;;;25.03;60.07;99193.66;1723949;80;21049;-41
2021/07/16 00:31:16;;;;;;;11.10;8.20;;;;;;;25.01;60.37;99189.98;1749626;82;21597;-41
2021/07/16 00:33:43;;;;;;;11.68;8.00;;;;;;;25.03;60.35;99185.34;1748658;80;21013;-41
2021/07/16 00:36:10;;;;;;;11.12;7.95;;;;;;;25.04;60.28;99190.44;1754315;80;21564;-41
2021/07/16 00:38:37;;;;;;;10.60;8.45;;;;;;;25.04;60.31;99191.05;1774309;80;21222;-41
2021/07/16 00:41:05;;;;;;;11.00;8.68;;;;;;;25.02;60.32;99190.76;1758278;80;21515;-41
2021/07/16 00:43:32;;;;;;;9.68;8.68;;;;;;;25.02;60.30;99194.92;1740623;80;21020;-41
2021/07/16 00:45:59;;;;;;;9.60;8.50;;;;;;;24.99;60.38;99195.82;1735083;80;21515;-41
2021/07/16 00:48:27;;;;;;;10.20;9.18;;;;;;;24.98;60.31;99190.14;1729449;80;21100;-41
2021/07/16 00:50:54;;;;;;;13.68;8.58;;;;;;;24.95;60.11;99198.75;1757363;80;21538;-41
2021/07/16 00:53:21;;;;;;;11.10;8.43;;;;;;;24.90;60.11;99187.49;1735380;80;21267;-42
2021/07/16 00:55:48;;;;;;;13.38;8.93;;;;;;;24.82;60.25;99195.94;1726344;82;21107;-42
2021/07/16 00:58:17;;;;;;;14.07;8.58;;;;;;;24.74;60.65;99194.70;1731753;80;21041;-41
2021/07/16 01:00:44;;;;;;;9.53;7.70;;;;;;;24.74;60.92;99190.55;1731685;80;21100;-41
2021/07/16 01:03:10;;;;;;;9.13;8.20;;;;;;;24.74;60.92;99190.55;1788210;80;21111;-41
2021/07/16 01:05:38;;;;;;;13.35;8.25;;;;;;;24.77;60.69;99187.61;1778909;80;20976;-41
2021/07/16 01:08:07;;;;;;;10.28;8.13;;;;;;;24.81;60.83;99191.61;1718998;83;21024;-41
2021/07/16 01:10:35;;;;;;;9.63;8.10;;;;;;;24.83;60.75;99191.33;1719580;83;21044;-41
2021/07/16 01:13:02;;;;;;;16.12;8.98;;;;;;;24.84;60.22;99194.84;1699910;83;21036;-41
2021/07/16 01:15:32;;;;;;;9.95;8.25;;;;;;;24.81;60.73;99183.30;1691719;83;21147;-41
2021/07/16 01:17:58;;;;;;;10.90;8.60;;;;;;;24.79;60.46;99185.75;1697302;82;20980;-41
2021/07/16 01:20:28;;;;;;;11.28;9.15;;;;;;;24.71;59.97;99181.73;1691450;84;21115;-41
2021/07/16 01:22:57;;;;;;;12.78;9.00;;;;;;;24.60;60.07;99177.40;1699179;82;21032;-41
2021/07/16 01:25:26;;;;;;;13.58;8.53;;;;;;;24.53;59.89;99177.70;1698737;82;21059;-41
2021/07/16 01:27:58;;;;;;;12.50;8.70;;;;;;;24.50;59.91;99175.84;1709846;82;21659;-41
2021/07/16 01:30:28;;;;;;;12.23;8.33;;;;;;;24.45;59.99;99173.66;1715725;83;21028;-41
2021/07/16 01:32:55;;;;;;;13.45;8.08;;;;;;;24.47;60.33;99173.22;1714752;83;21550;-41
2021/07/16 01:35:23;;;;;;;9.98;8.38;;;;;;;24.50;60.08;99164.75;1714033;83;20980;-41
2021/07/16 01:37:50;;;;;;;10.88;8.60;;;;;;;24.50;59.37;99167.52;1706775;83;21024;-41
2021/07/16 01:40:19;;;;;;;11.30;8.60;;;;;;;24.50;59.96;99161.20;1693043;83;21150;-41
2021/07/16 01:42:53;;;;;;;10.25;7.87;;;;;;;24.51;59.71;99171.84;1691961;84;20984;-41
2021/07/16 01:45:24;;;;;;;12.78;8.10;;;;;;;24.50;60.05;99167.52;1693331;83;20977;-41
2021/07/16 01:47:56;;;;;;;10.70;8.30;;;;;;;24.48;59.99;99160.30;1682469;84;21089;-41
2021/07/16 01:50:23;;;;;;;8.95;8.10;;;;;;;24.48;59.83;99165.06;1697258;84;21062;-41
2021/07/16 01:52:50;;;;;;;9.78;8.00;;;;;;;24.46;59.64;99159.97;1703911;84;21585;-41
2021/07/16 01:55:19;;;;;;;12.03;8.83;;;;;;;24.45;59.35;99163.19;1738259;82;20942;-41
2021/07/16 01:57:51;;;;;;;11.78;7.83;;;;;;;24.41;59.20;99150.88;1742922;80;21077;-41
2021/07/16 02:00:24;;;;;;;13.05;8.85;;;;;;;24.38;59.36;99146.26;1697363;84;21087;-41
2021/07/16 02:02:54;;;;;;;9.48;8.48;;;;;;;24.35;60.17;99147.16;1731954;80;21036;-41
2021/07/16 02:05:24;;;;;;;12.15;8.30;;;;;;;24.34;59.88;99138.70;1713352;80;21137;-41
2021/07/16 02:07:54;;;;;;;13.75;8.58;;;;;;;24.36;60.06;99134.84;1714379;80;20965;-41
2021/07/16 02:10:25;;;;;;;12.55;8.25;;;;;;;24.36;60.10;99136.23;1726582;80;20910;-41
2021/07/16 02:12:54;;;;;;;10.98;8.30;;;;;;;24.34;59.98;99138.70;1735116;80;21014;-41
2021/07/16 02:15:25;;;;;;;15.55;9.00;;;;;;;24.26;59.91;99142.97;1731484;82;20961;-41
2021/07/16 02:17:52;;;;;;;10.15;8.88;;;;;;;24.16;59.91;99142.17;1704508;84;21085;-41
2021/07/16 02:20:26;;;;;;;11.03;8.83;;;;;;;24.09;60.03;99149.98;1687751;84;21495;-42
2021/07/16 02:22:58;;;;;;;11.03;8.75;;;;;;;24.02;60.30;99139.16;1681101;84;20985;-42
2021/07/16 02:25:27;;;;;;;10.38;8.20;;;;;;;23.96;60.69;99136.24;1706943;84;21049;-42
2021/07/16 02:27:57;;;;;;;9.93;8.15;;;;;;;23.94;60.93;99133.76;1705258;83;21550;-42
2021/07/16 02:30:25;;;;;;;;;;;;;;;23.95;60.98;99134.70;1688010;83;22202;-42
2021/07/16 02:32:55;;;;;;;12.20;8.80;;;;;;;23.97;61.37;99134.22;1678545;85;20147;-42
2021/07/16 02:35:22;;;;;;;9.63;7.95;;;;;;;23.91;61.40;99126.38;1687777;82;21045;-42
2021/07/16 02:37:48;;;;;;;12.18;8.65;;;;;;;23.96;61.27;99129.32;1697877;82;21080;-42
2021/07/16 02:40:15;;;;;;;10.93;8.65;;;;;;;24.00;60.74;99120.86;1679993;83;21112;-42
2021/07/16 02:42:43;;;;;;;12.05;8.73;;;;;;;24.01;60.78;99119.64;1723283;83;21810;-42
2021/07/16 02:45:13;;;;;;;14.25;8.93;;;;;;;24.01;60.86;99124.55;1678522;85;21112;-42
2021/07/16 02:47:41;;;;;;;11.25;8.50;;;;;;;24.02;60.97;99123.33;1679168;83;21021;-42
2021/07/16 02:50:12;;;;;;;11.03;8.55;;;;;;;24.02;60.91;99121.94;1684725;84;21028;-42
2021/07/16 02:52:40;;;;;;;11.57;9.13;;;;;;;24.00;60.63;99127.17;1697367;83;21082;-42
2021/07/16 02:55:09;;;;;;;15.08;8.50;;;;;;;23.97;60.83;99121.76;1719331;82;21131;-42
2021/07/16 02:57:35;;;;;;;11.20;8.00;;;;;;;23.94;60.74;99121.30;1729321;83;21554;-42
2021/07/16 03:00:08;;;;;;;12.68;7.95;;;;;;;23.95;60.48;99122.23;1695696;83;21345;-42
2021/07/16 03:02:42;;;;;;;10.82;8.68;;;;;;;23.99;60.34;99124.25;1692268;83;21081;-42
2021/07/16 03:05:18;;;;;;;10.90;8.28;;;;;;;23.98;60.14;99119.93;1713401;82;21132;-42
2021/07/16 03:07:43;;;;;;;12.73;8.68;;;;;;;24.00;60.04;99118.88;1678850;83;21171;-42
2021/07/16 03:10:16;;;;;;;11.18;8.75;;;;;;;23.99;59.93;99120.70;1678620;85;21576;-41
2021/07/16 03:12:44;;;;;;;13.68;8.65;;;;;;;23.98;59.90;99119.93;1691563;83;20974;-41
2021/07/16 03:15:18;;;;;;;14.25;8.33;;;;;;;24.00;59.91;99123.63;1723974;82;20981;-42
2021/07/16 03:17:45;;;;;;;10.18;8.58;;;;;;;24.00;59.92;99131.33;1707336;82;21038;-41
2021/07/16 03:20:16;;;;;;;11.75;8.35;;;;;;;23.99;59.98;99135.94;1698467;83;21881;-42
2021/07/16 03:22:44;;;;;;;13.43;7.72;;;;;;;24.01;60.00;99137.64;1713174;82;21492;-42
2021/07/16 03:25:15;;;;;;;12.58;7.83;;;;;;;24.08;59.74;99149.81;1685135;83;20982;-41
2021/07/16 03:27:41;;;;;;;11.35;7.60;;;;;;;24.16;59.58;99144.14;1707247;83;21041;-42
2021/07/16 03:30:13;;;;;;;13.72;8.53;;;;;;;24.19;59.59;99147.43;1672948;83;21523;-42
2021/07/16 03:32:39;;;;;;;;;;;;;;;24.22;59.63;99145.89;1717232;80;21158;-42
2021/07/16 03:35:08;;;;;;;10.80;8.60;;;;;;;24.29;59.41;99144.08;1715424;80;20147;-42
2021/07/16 03:37:36;;;;;;;11.70;8.70;;;;;;;24.23;59.60;99144.67;1683870;84;21538;-42
2021/07/16 03:40:06;;;;;;;14.15;8.63;;;;;;;24.29;59.69;99149.00;1699552;84;21028;-42
2021/07/16 03:42:32;;;;;;;16.02;8.98;;;;;;;24.33;59.74;99151.62;1753008;80;21029;-41
2021/07/16 03:45:03;;;;;;;10.93;8.10;;;;;;;24.34;59.85;99149.79;1714968;80;21053;-41
2021/07/16 03:47:29;;;;;;;9.78;8.15;;;;;;;24.34;59.85;99162.26;1722837;80;21014;-42
2021/07/16 03:49:57;;;;;;;12.47;9.18;;;;;;;24.38;59.86;99158.72;1737722;80;21025;-42
2021/07/16 03:52:25;;;;;;;17.07;9.10;;;;;;;24.43;59.93;99158.73;1723107;80;21104;-42
2021/07/16 03:54:51;;;;;;;12.50;8.30;;;;;;;24.50;60.26;99145.96;1690746;83;21545;-42
2021/07/16 03:57:19;;;;;;;11.65;8.48;;;;;;;24.57;60.29;99154.77;1681886;85;21565;-42
2021/07/16 04:01:00;;;;;;;15.40;9.13;;;;;;;24.71;60.10;99156.78;1789451;78;23995;-41
2021/07/16 04:03:27;;;;;;;14.65;8.73;;;;;;;24.66;60.24;99160.94;1755281;81;21584;-41
2021/07/16 04:05:55;;;;;;;11.73;8.53;;;;;;;24.70;60.55;99164.33;1754936;80;21603;-41
2021/07/16 04:08:23;;;;;;;10.90;8.45;;;;;;;24.76;60.87;99168.05;1739213;81;28324;-41
2021/07/16 04:10:51;;;;;;;12.45;8.48;;;;;;;24.86;61.22;99166.05;1756582;81;21590;-41
2021/07/16 04:13:18;;;;;;;14.45;8.73;;;;;;;24.98;61.34;99169.34;1762974;80;20894;-41
2021/07/16 04:15:45;;;;;;;16.12;8.28;;;;;;;25.12;61.08;99171.50;1751347;80;20977;-42
2021/07/16 04:18:12;;;;;;;13.83;8.10;;;;;;;25.25;60.88;99169.33;1734322;80;22066;-41
2021/07/16 04:20:40;;;;;;;9.50;8.48;;;;;;;25.38;60.99;99173.32;1748958;80;21015;-41
2021/07/16 04:23:07;;;;;;;11.73;8.78;;;;;;;25.49;60.58;99173.01;1750585;81;21612;-41
2021/07/16 04:25:33;;;;;;;9.58;8.25;;;;;;;25.59;60.27;99173.02;1747090;81;20973;-41
2021/07/16 04:28:03;;;;;;;10.93;8.25;;;;;;;25.70;60.44;99176.86;1746403;80;21531;-41
2021/07/16 04:30:31;;;;;;;13.48;8.25;;;;;;;25.79;59.95;99173.28;1755726;80;21513;-41
2021/07/16 04:33:02;;;;;;;12.03;8.70;;;;;;;25.85;59.54;99174.20;1746313;82;20964;-41
2021/07/16 04:35:29;;;;;;;11.70;8.45;;;;;;;25.91;58.99;99169.53;1749632;80;21008;-41
2021/07/16 04:37:56;;;;;;;19.15;8.58;;;;;;;25.94;59.19;99171.39;1754170;81;21016;-41
2021/07/16 04:40:23;;;;;;;12.50;8.83;;;;;;;25.99;59.16;99166.59;1745672;81;21008;-41
2021/07/16 04:42:53;;;;;;;12.28;8.45;;;;;;;26.04;59.29;99171.52;1741878;81;21483;-41
2021/07/16 04:45:20;;;;;;;9.60;8.38;;;;;;;26.11;59.27;99172.55;1745443;80;21032;-41
2021/07/16 04:47:47;;;;;;;13.20;8.65;;;;;;;26.17;58.85;99177.63;1752480;80;20953;-41
2021/07/16 04:50:15;;;;;;;14.87;9.00;;;;;;;26.21;58.67;99178.84;1767569;80;21460;-41
2021/07/16 04:52:45;;;;;;;;;;;;;;;26.21;58.34;99172.70;1750289;80;20976;-41
2021/07/16 04:55:14;;;;;;;12.37;8.88;;;;;;;26.26;58.42;99179.63;1752752;80;21056;-41
2021/07/16 04:57:40;;;;;;;13.22;8.50;;;;;;;26.21;58.26;99179.64;1745526;80;20968;-41
2021/07/16 05:00:09;;;;;;;9.70;8.23;;;;;;;26.25;58.00;99178.08;1741739;80;21092;-41
2021/07/16 05:02:37;;;;;;;11.22;8.48;;;;;;;26.29;57.62;99184.23;1740030;81;21023;-41
2021/07/16 05:05:05;;;;;;;11.55;8.70;;;;;;;26.30;57.82;99179.59;1736015;80;21033;-41
2021/07/16 05:07:32;;;;;;;12.85;8.68;;;;;;;26.35;57.60;99180.97;1730384;81;21877;-41
2021/07/16 05:10:03;;;;;;;11.65;8.48;;;;;;;26.36;57.63;99181.89;1737554;81;20973;-41
2021/07/16 05:12:30;;;;;;;10.78;8.63;;;;;;;26.41;57.91;99183.27;1689428;83;21028;-41
2021/07/16 05:14:58;;;;;;;14.60;8.58;;;;;;;26.46;57.41;99184.63;1693631;82;21489;-41
2021/07/16 05:17:25;;;;;;;13.85;9.18;;;;;;;26.50;57.65;99178.27;1694632;83;21084;-41
2021/07/16 05:19:52;;;;;;;11.05;9.15;;;;;;;26.56;57.81;99180.55;1697148;82;21561;-41
2021/07/16 05:22:18;;;;;;;12.13;8.58;;;;;;;26.62;57.12;99180.06;1694829;84;21089;-45
2021/07/16 05:24:45;;;;;;;13.20;8.73;;;;;;;26.68;57.29;99184.48;1693451;82;21512;-46
2021/07/16 05:27:12;;;;;;;10.10;8.90;;;;;;;26.77;57.15;99183.68;1718232;83;20980;-45
2021/07/16 05:29:38;;;;;;;16.25;8.70;;;;;;;26.88;57.15;99185.31;1704910;82;21051;-45
2021/07/16 05:32:08;;;;;;;9.80;7.80;;;;;;;26.98;57.11;99182.62;1717467;82;21792;-45
2021/07/16 05:34:34;;;;;;;11.40;8.28;;;;;;;27.09;55.61;99179.30;1694104;83;21017;-43
2021/07/16 05:37:04;;;;;;;13.00;8.60;;;;;;;27.18;55.87;99180.61;1699692;82;21012;-45
2021/07/16 05:39:30;;;;;;;12.35;8.08;;;;;;;27.27;56.29;99181.92;1713342;82;21044;-45
2021/07/16 05:41:57;;;;;;;11.70;8.40;;;;;;;27.35;55.29;99185.12;1713189;82;21081;-45
2021/07/16 05:44:23;;;;;;;10.98;8.15;;;;;;;27.40;55.00;99183.80;1704895;82;21851;-45
2021/07/16 05:46:51;;;;;;;11.78;9.05;;;;;;;27.47;55.68;99177.11;1721835;82;21052;-45
2021/07/16 05:49:17;;;;;;;14.68;8.68;;;;;;;27.57;55.70;99179.36;1706257;82;21025;-46
2021/07/16 05:51:44;;;;;;;11.50;9.45;;;;;;;27.65;55.43;99176.33;1697038;82;21549;-45
2021/07/16 05:54:11;;;;;;;11.90;8.78;;;;;;;27.73;55.56;99175.34;1673280;84;20964;-46
2021/07/16 05:56:41;;;;;;;12.47;8.60;;;;;;;27.79;54.88;99177.56;1651821;84;21221;-45
2021/07/16 05:59:06;;;;;;;11.38;8.23;;;;;;;27.84;54.88;99175.50;1689217;84;20992;-46
2021/07/16 06:01:33;;;;;;;11.45;8.23;;;;;;;27.93;55.11;99184.41;1678421;84;20976;-45
2021/07/16 06:04:03;;;;;;;11.53;8.48;;;;;;;28.00;54.68;99184.77;1691029;83;21562;-46
2021/07/16 06:06:28;;;;;;;12.35;8.08;;;;;;;28.08;54.50;99181.72;1697326;82;21037;-45
2021/07/16 06:08:55;;;;;;;11.88;7.55;;;;;;;28.16;53.64;99186.95;1710540;82;21119;-46
2021/07/16 06:11:23;;;;;;;14.13;8.23;;;;;;;28.22;53.74;99194.78;1677885;84;21032;-45
2021/07/16 06:13:50;;;;;;;16.05;8.48;;;;;;;28.29;54.08;99187.39;1679010;84;20984;-45
2021/07/16 06:16:16;;;;;;;13.28;8.15;;;;;;;28.38;53.82;99184.48;1680462;85;21028;-44
2021/07/16 06:18:43;;;;;;;10.58;8.40;;;;;;;28.46;53.37;99183.62;1693599;82;21036;-42
2021/07/16 06:21:09;;;;;;;12.15;8.18;;;;;;;28.56;53.31;99187.05;1700162;82;21149;-42
2021/07/16 06:23:36;;;;;;;11.48;8.10;;;;;;;28.66;52.47;99185.64;1718466;82;20977;-42
2021/07/16 06:26:03;;;;;;;9.10;7.60;;;;;;;28.73;52.01;99189.45;1713139;82;21021;-42
2021/07/16 06:28:29;;;;;;;11.97;7.78;;;;;;;28.78;52.23;99184.58;1713281;83;21538;-42
2021/07/16 06:30:58;;;;;;;12.45;7.97;;;;;;;28.84;52.06;99185.42;1725628;82;21309;-42
2021/07/16 06:33:24;;;;;;;11.28;8.38;;;;;;;28.89;52.20;99190.31;1708269;82;21143;-42
2021/07/16 06:35:51;;;;;;;13.18;8.40;;;;;;;28.95;51.72;99186.17;1713512;83;20985;-42
2021/07/16 06:38:18;;;;;;;9.48;7.92;;;;;;;29.01;51.47;99184.84;1680524;84;21596;-42
2021/07/16 06:40:44;;;;;;;10.45;8.10;;;;;;;29.05;51.07;99185.42;1677411;84;21559;-43
2021/07/16 06:43:11;;;;;;;10.13;8.70;;;;;;;29.12;51.32;99184.98;1731402;82;21229;-43
2021/07/16 06:45:39;;;;;;;9.85;8.65;;;;;;;29.18;51.24;99183.80;1719928;82;20974;-43
2021/07/16 06:48:07;;;;;;;10.40;8.20;;;;;;;29.25;51.43;99183.98;1684366;83;20965;-43
2021/07/16 06:50:34;;;;;;;11.28;7.83;;;;;;;29.33;51.19;99185.14;1701649;82;21096;-43
2021/07/16 06:53:02;;;;;;;12.00;8.60;;;;;;;29.39;50.48;99187.34;1712104;82;21041;-42
2021/07/16 06:55:28;;;;;;;10.85;7.90;;;;;;;29.44;50.15;99188.03;1722331;82;20996;-42
2021/07/16 06:57:55;;;;;;;11.15;8.20;;;;;;;29.49;50.38;99186.55;1729653;82;21143;-42
2021/07/16 07:00:22;;;;;;;11.90;8.83;;;;;;;29.57;50.54;99187.05;1726914;82;20902;-42
2021/07/16 07:02:49;;;;;;;13.78;8.15;;;;;;;29.64;49.84;99185.19;1716790;81;21554;-42
2021/07/16 07:05:15;;;;;;;10.08;8.50;;;;;;;29.67;50.39;99175.84;1717922;81;21069;-43
2021/07/16 07:07:42;;;;;;;10.70;8.00;;;;;;;29.86;49.81;99190.86;1714466;83;21099;-43
2021/07/16 07:10:11;;;;;;;15.50;8.70;;;;;;;29.97;49.19;99185.37;1725220;82;21143;-44
2021/07/16 07:12:38;;;;;;;9.18;8.28;;;;;;;30.03;48.99;99177.80;1715602;82;22446;-43
2021/07/16 07:15:07;;;;;;;11.55;8.08;;;;;;;30.11;48.63;99178.90;1698631;82;20984;-43
2021/07/16 07:17:33;;;;;;;8.83;7.95;;;;;;;30.17;48.75;99179.05;1709055;82;21574;-43
2021/07/16 07:20:00;;;;;;;10.82;8.23;;;;;;;30.26;48.67;99182.29;1705119;81;21640;-44
2021/07/16 07:22:27;;;;;;;12.78;8.23;;;;;;;30.32;47.91;99178.91;1708136;81;21850;-44
2021/07/16 07:24:53;;;;;;;11.48;8.23;;;;;;;30.37;48.32;99180.97;1721920;81;21037;-43
2021/07/16 07:27:20;;;;;;;11.57;8.75;;;;;;;30.45;48.48;99182.03;1716567;82;21008;-43
2021/07/16 07:29:47;;;;;;;12.05;8.03;;;;;;;30.56;48.06;99189.76;1718872;82;21543;-44
2021/07/16 07:32:14;;;;;;;9.80;7.97;;;;;;;30.64;47.57;99188.78;1700448;82;21020;-43
2021/07/16 07:34:41;;;;;;;11.85;8.03;;;;;;;30.76;47.89;99185.42;1686307;85;21170;-44
2021/07/16 07:37:07;;;;;;;10.05;8.08;;;;;;;30.87;47.54;99192.48;1709416;82;21562;-43
2021/07/16 07:39:34;;;;;;;10.95;7.55;;;;;;;30.98;47.58;99187.56;1728959;82;21115;-43
2021/07/16 07:42:01;;;;;;;11.85;8.43;;;;;;;31.12;47.52;99191.46;1730074;82;21068;-44
2021/07/16 07:44:28;;;;;;;14.18;8.13;;;;;;;31.21;46.08;99192.00;1720199;83;21612;-44
2021/07/16 07:46:56;;;;;;;9.20;8.30;;;;;;;31.24;46.47;99194.41;1720317;83;20977;-43
2021/07/16 07:49:24;;;;;;;12.28;8.85;;;;;;;31.31;46.62;99184.14;1721353;81;21558;-44
2021/07/16 07:51:50;;;;;;;9.95;8.75;;;;;;;31.40;47.54;99189.50;1710938;81;21077;-42
2021/07/16 07:54:17;;;;;;;13.80;9.35;;;;;;;31.53;47.05;99193.98;1714723;82;21045;-42
2021/07/16 07:56:44;;;;;;;12.78;9.58;;;;;;;31.67;47.41;99199.25;1694762;82;21824;-42
2021/07/16 07:59:11;;;;;;;13.53;8.85;;;;;;;31.82;47.70;99201.18;1724014;82;21145;-42
2021/07/16 08:01:38;;;;;;;10.63;8.85;;;;;;;31.95;46.33;99191.65;1716645;82;20938;-42
2021/07/16 08:04:04;;;;;;;10.18;9.18;;;;;;;32.09;46.06;99196.87;1704144;82;21092;-42
2021/07/16 08:06:32;;;;;;;10.82;9.50;;;;;;;32.19;45.79;99198.94;1702439;82;20992;-42
2021/07/16 08:08:59;;;;;;;12.20;9.30;;;;;;;32.25;45.40;99195.47;1712055;82;21032;-42
2021/07/16 08:11:28;;;;;;;10.72;9.05;;;;;;;32.31;45.62;99199.04;1713691;82;21922;-42
2021/07/16 08:13:55;;;;;;;10.38;9.28;;;;;;;32.41;45.52;99192.52;1714194;82;21511;-42
2021/07/16 08:16:21;;;;;;;10.10;8.75;;;;;;;32.53;44.57;99191.23;1704863;82;21502;-42
2021/07/16 08:18:50;;;;;;;13.58;9.45;;;;;;;32.68;43.66;99189.53;1702806;82;20994;-42
2021/07/16 08:21:16;;;;;;;11.22;9.73;;;;;;;32.83;43.66;99189.23;1711665;82;21108;-41
2021/07/16 08:23:43;;;;;;;12.82;9.03;;;;;;;32.96;43.66;99183.84;1678216;84;21174;-41
2021/07/16 08:26:11;;;;;;;9.93;8.63;;;;;;;33.08;43.09;99184.67;1678428;84;20956;-41
2021/07/16 08:28:39;;;;;;;11.50;8.83;;;;;;;33.14;42.38;99184.01;1678155;84;21075;-41
2021/07/16 08:31:06;;;;;;;15.68;9.10;;;;;;;33.18;41.49;99183.12;1671875;84;21085;-41
2021/07/16 08:33:32;;;;;;;12.47;9.30;;;;;;;33.21;41.50;99184.14;1706612;82;21045;-41
2021/07/16 08:35:59;;;;;;;14.55;9.75;;;;;;;33.26;42.17;99185.39;1698506;82;21144;-41
2021/07/16 08:38:26;;;;;;;10.75;9.03;;;;;;;33.33;41.91;99181.38;1700430;82;21515;-41
2021/07/16 08:40:53;;;;;;;12.47;9.58;;;;;;;33.42;42.37;99181.70;1722796;82;20974;-42
2021/07/16 08:43:22;;;;;;;15.08;10.23;;;;;;;33.53;41.75;99179.59;1712987;82;21085;-42
2021/07/16 08:45:53;;;;;;;10.68;9.58;;;;;;;33.70;41.37;99186.52;1712891;82;21053;-41
2021/07/16 08:48:19;;;;;;;;;;;;;;;33.62;41.28;99153.20;1700426;83;21184;-41
2021/07/16 08:50:46;;;;;;;12.70;9.98;;;;;;;33.95;42.00;99188.13;1710022;82;20492;-42
2021/07/16 08:53:13;;;;;;;11.12;9.28;;;;;;;33.95;40.81;99188.77;1707771;82;21074;-41
2021/07/16 08:55:42;;;;;;;12.93;9.53;;;;;;;34.05;41.08;99192.77;1724638;82;20994;-41
2021/07/16 08:58:10;;;;;;;14.50;9.27;;;;;;;34.12;40.42;99185.17;1738077;82;21532;-42
2021/07/16 09:00:37;;;;;;;13.97;9.53;;;;;;;34.21;40.31;99185.50;1733571;82;21140;-41
2021/07/16 09:03:05;;;;;;;9.83;8.83;;;;;;;34.32;39.79;99185.41;1727474;82;21060;-42
2021/07/16 09:05:40;;;;;;;9.73;8.70;;;;;;;34.40;39.36;99185.70;1717460;81;21001;-41
2021/07/16 09:08:19;;;;;;;11.43;8.58;;;;;;;34.51;39.51;99190.45;1710703;82;21073;-41
2021/07/16 09:10:50;;;;;;;12.82;9.13;;;;;;;34.61;39.48;99183.83;1720241;83;21678;-41
2021/07/16 09:13:17;;;;;;;12.20;8.55;;;;;;;34.65;37.50;99183.64;1714645;83;21825;-41
2021/07/16 09:15:52;;;;;;;11.20;9.48;;;;;;;34.64;38.59;99186.98;1728144;82;21004;-41
2021/07/16 09:18:27;;;;;;;11.20;9.00;;;;;;;34.62;38.73;99180.45;1709701;81;21008;-41
2021/07/16 09:21:07;;;;;;;10.20;9.20;;;;;;;34.65;39.07;99177.25;1714184;81;21395;-41
2021/07/16 09:23:41;;;;;;;10.00;8.70;;;;;;;34.65;38.44;99175.84;1719615;81;21085;-41
2021/07/16 09:26:12;;;;;;;12.50;9.33;;;;;;;34.61;38.22;99177.55;1719797;81;21140;-41
2021/07/16 09:28:46;;;;;;;11.43;8.95;;;;;;;34.64;38.48;99177.13;1709632;81;21059;-41
2021/07/16 09:31:21;;;;;;;9.20;8.30;;;;;;;34.67;37.97;99180.28;1723769;82;21000;-41
2021/07/16 09:33:54;;;;;;;10.23;8.73;;;;;;;34.73;37.94;99171.16;1718543;81;20977;-41
2021/07/16 09:36:33;;;;;;;12.47;9.18;;;;;;;34.84;39.52;99178.84;1695020;83;21008;-41
2021/07/16 09:39:13;;;;;;;11.18;8.80;;;;;;;34.93;37.52;99174.88;1716192;81;21114;-41
2021/07/16 09:41:55;;;;;;;12.20;9.13;;;;;;;34.91;36.46;99170.41;1725199;82;21047;-41
2021/07/16 09:44:34;;;;;;;11.57;9.30;;;;;;;34.82;37.19;99175.78;1714856;81;20981;-41
2021/07/16 09:47:17;;;;;;;12.43;9.20;;;;;;;34.81;38.73;99174.25;1725967;81;21520;-41
2021/07/16 09:50:07;;;;;;;9.98;8.80;;;;;;;34.83;38.07;99170.27;1720052;82;20932;-41
2021/07/16 09:52:34;;;;;;;9.60;8.70;;;;;;;34.93;37.66;99167.08;1717619;82;21128;-41
2021/07/16 09:55:18;;;;;;;14.93;9.03;;;;;;;35.09;37.33;99176.73;1723072;81;21495;-41
2021/07/16 09:57:46;;;;;;;12.90;9.60;;;;;;;35.21;37.80;99174.54;1725351;81;21139;-41
2021/07/16 10:00:23;;;;;;;13.60;9.80;;;;;;;35.33;37.21;99178.74;1727123;81;21028;-41
2021/07/16 10:02:51;;;;;;;10.28;9.23;;;;;;;35.30;36.44;99168.52;1713091;82;21534;-41
2021/07/16 10:05:18;;;;;;;13.80;9.10;;;;;;;35.23;36.40;99180.42;1708819;81;21835;-41
2021/07/16 10:07:45;;;;;;;12.37;9.55;;;;;;;35.14;36.65;99171.67;1709921;81;21033;-41
2021/07/16 10:10:16;;;;;;;11.45;10.28;;;;;;;35.06;37.07;99173.55;1715814;81;21087;-41
2021/07/16 10:12:44;;;;;;;10.80;9.70;;;;;;;35.11;38.15;99176.18;1715461;83;21055;-41
2021/07/16 10:15:14;;;;;;;12.47;9.85;;;;;;;35.22;38.44;99171.84;1715132;83;21088;-41
2021/07/16 10:17:41;;;;;;;9.67;8.67;;;;;;;35.42;38.35;99164.90;1716962;81;21102;-41
2021/07/16 10:20:16;;;;;;;12.30;10.72;;;;;;;35.51;36.57;99157.45;1714507;81;21550;-41
2021/07/16 10:22:47;;;;;;;10.72;9.63;;;;;;;35.41;36.67;99164.13;1714841;83;20929;-41
2021/07/16 10:25:16;;;;;;;11.40;9.65;;;;;;;35.23;35.90;99157.22;1723450;81;21091;-41
2021/07/16 10:27:44;;;;;;;10.78;9.53;;;;;;;35.09;36.38;99162.64;1721449;81;21056;-41
2021/07/16 10:30:19;;;;;;;11.10;9.30;;;;;;;35.03;36.46;99159.13;1717934;81;21217;-41
2021/07/16 10:32:54;;;;;;;11.57;9.65;;;;;;;35.11;37.84;99163.50;1721608;82;21701;-41
2021/07/16 10:35:36;;;;;;;11.10;10.00;;;;;;;35.27;37.46;99159.08;1721267;83;20976;-41
2021/07/16 10:38:07;;;;;;;9.95;8.88;;;;;;;35.38;36.40;99160.98;1720638;81;21092;-41
2021/07/16 10:40:43;;;;;;;11.05;9.68;;;;;;;35.39;36.40;99149.80;1712320;83;21103;-41
2021/07/16 10:43:29;;;;;;;11.68;9.53;;;;;;;35.33;37.47;99147.73;1717949;81;21045;-41
2021/07/16 10:46:01;;;;;;;10.85;9.33;;;;;;;35.26;37.21;99154.73;1658223;86;21035;-42
2021/07/16 10:48:32;;;;;;;13.90;11.57;;;;;;;35.25;37.89;99152.44;1676565;85;21536;-41
2021/07/16 10:50:59;;;;;;;13.48;11.30;;;;;;;35.21;36.26;99144.30;1713708;81;21090;-41
2021/07/16 10:53:34;;;;;;;13.85;11.00;;;;;;;35.13;37.82;99140.55;1710448;83;21065;-41
2021/07/16 10:56:06;;;;;;;15.95;11.53;;;;;;;35.02;38.80;99142.75;1720660;83;21158;-41
2021/07/16 10:58:43;;;;;;;12.07;10.93;;;;;;;34.87;38.79;99132.70;1717727;81;21044;-41
2021/07/16 11:01:11;;;;;;;13.90;10.90;;;;;;;34.74;39.24;99128.39;1715546;83;20956;-41
2021/07/16 11:03:49;;;;;;;12.90;10.85;;;;;;;34.65;39.31;99132.19;1715746;82;21025;-42
2021/07/16 11:06:18;;;;;;;12.15;10.75;;;;;;;34.61;39.73;99139.54;1715964;82;21405;-41
2021/07/16 11:08:50;;;;;;;15.58;11.08;;;;;;;34.69;39.76;99132.03;1732714;82;21938;-41
2021/07/16 11:11:24;;;;;;;12.95;10.98;;;;;;;34.88;39.15;99136.28;1736977;82;20957;-41
2021/07/16 11:13:56;;;;;;;12.37;11.08;;;;;;;35.20;39.08;99127.92;1735803;82;21024;-41
2021/07/16 11:16:34;;;;;;;11.78;10.58;;;;;;;35.63;38.92;99131.35;1737617;82;21066;-41
2021/07/16 11:19:11;;;;;;;13.22;10.23;;;;;;;36.06;36.94;99128.36;1737923;82;21306;-41
2021/07/16 11:21:48;;;;;;;15.08;11.12;;;;;;;36.38;36.28;99125.47;1730864;82;21005;-42
2021/07/16 11:24:22;;;;;;;13.60;10.00;;;;;;;36.74;35.59;99115.17;1713133;83;21534;-41
2021/07/16 11:27:05;;;;;;;14.05;10.63;;;;;;;37.18;36.59;99114.88;1713602;83;21088;-42
2021/07/16 11:29:46;;;;;;;14.85;10.88;;;;;;;37.63;35.02;99114.58;1713787;83;20982;-42
2021/07/16 11:32:24;;;;;;;13.38;11.28;;;;;;;37.96;34.61;99105.23;1713632;83;21523;-41
2021/07/16 11:35:05;;;;;;;14.73;11.40;;;;;;;38.14;34.20;99107.11;1713733;82;22127;-42
2021/07/16 11:37:49;;;;;;;15.40;10.88;;;;;;;38.28;33.51;99100.03;1713568;83;21033;-41